Aeroporto :
LOGIN :

Iscrizione | Disclaimer

   EN    FR    IT 

 










Sommario :    VFR   VFR Marginale   IFR   IFR Intensivo   IFR Molto Intensivo
Visibilità : 
Base nubi : 
>= 8 km
>= 3000ft
5 / 8 km
1000 / 3000 ft
1500m / 5 km
500 / 1000 ft
800 / 1500m
200 / 500 ft
< 800m
< 200 ft
Simboli :   Temporali  Nebbia  Neve Forte  Precipitazioni Forti  Vento > 20 kt
SIGMETs :   Varie  Temporali  Ghiacco  Turbolenza  Onda orograficha  Ceneri Vulcaniche






- Altitudine del aeroporto : 16 ft
- Codice IATA : EAS


LESO - San Sebastian Fuenterrabia

ULTIMO METAR :
  • 290900Z 22007KT 190V260 9999 FEW025 12/07 Q1022

METARs OBSOLETI :
  • 290830Z 20003KT 160V260 9000 FEW026 10/06 Q1022
  • 290800Z 18005KT 9000 FEW025 09/06 Q1022
  • 290730Z 17005KT 9000 NSC 08/05 Q1022
  • 290700Z 18006KT 9000 NSC 07/05 Q1022

TAF TAF LESO
Valido dal 29 a 06 ore il 30 a 06 ore UTC


290500Z 2906/3006 16009KT CAVOK TX15/2912Z TN05/3006Z
TEMPO 2910/2918 30010KT
TEMPO 2912/2924 3000 RA SHRA BKN012 SCT030TCU



MetMap, La meteo Aeronautica in un colpo d'occhio ! - Copyright ORBIFLY Dicembre 2007 - Disclaimer

ORBIFLY MET'MAP TEAM :

Programmazione e sviluppo : Alexandra Zaïnal
Concezione : Baudouin d'Aumeries
Aiuto per la programmazione : Marc-Olivier Méhu
Supporto tecnico e logistico : Manuel Goepfert
Aiuto per la traduzione : Arnaldo La Scala

Contatto : metmap@orbifly.com




FONTI E CREDITI :

   NOAA